createdAt,value
2019-04-14T00:01:21.840Z,79.90
2019-04-14T00:06:41.903Z,80.36
2019-04-14T00:09:12.411Z,80.30
2019-04-14T00:11:41.473Z,80.21
2019-04-14T00:14:07.631Z,80.20
2019-04-14T00:16:33.905Z,80.04
2019-04-14T00:18:59.983Z,79.92
2019-04-14T00:21:26.161Z,79.85
2019-04-14T00:23:52.309Z,79.87
2019-04-14T00:26:24.975Z,79.66
2019-04-14T00:28:51.290Z,79.62
2019-04-14T00:31:17.523Z,79.48
2019-04-14T00:33:45.289Z,79.57
2019-04-14T00:36:22.267Z,79.54
2019-04-14T00:38:50.332Z,79.39
2019-04-14T00:41:18.322Z,79.28
2019-04-14T00:43:48.896Z,79.29
2019-04-14T00:46:34.184Z,79.36
2019-04-14T00:49:02.722Z,79.50
2019-04-14T00:51:29.054Z,79.55
2019-04-14T00:53:55.753Z,79.70
2019-04-14T00:56:21.949Z,79.67
2019-04-14T00:58:47.997Z,79.66
2019-04-14T01:01:14.055Z,79.60
2019-04-14T01:03:40.208Z,79.44
2019-04-14T01:06:07.546Z,79.59
2019-04-14T01:08:33.881Z,79.42
2019-04-14T01:11:00.992Z,79.30
2019-04-14T01:13:27.400Z,79.22
2019-04-14T01:16:00.566Z,79.27
2019-04-14T01:18:21.620Z,79.18
2019-04-14T01:20:47.784Z,79.16
2019-04-14T01:23:15.035Z,79.07
2019-04-14T01:25:41.295Z,79.13
2019-04-14T01:28:07.442Z,79.03
2019-04-14T01:30:33.601Z,78.95
2019-04-14T01:33:01.010Z,78.94
2019-04-14T01:35:27.313Z,78.84
2019-04-14T01:37:53.472Z,78.79
2019-04-14T01:40:20.699Z,78.71
2019-04-14T01:42:46.974Z,78.71
2019-04-14T01:45:16.350Z,78.61
2019-04-14T01:47:42.594Z,78.56
2019-04-14T01:50:08.739Z,78.43
2019-04-14T01:52:36.701Z,78.35
2019-04-14T01:55:07.008Z,78.31
2019-04-14T01:57:35.128Z,78.32
2019-04-14T02:00:20.772Z,78.32
2019-04-14T02:02:47.296Z,78.36
2019-04-14T02:05:14.566Z,78.38
2019-04-14T02:07:40.829Z,78.33
2019-04-14T02:10:07.036Z,78.16
2019-04-14T02:12:34.435Z,78.08
2019-04-14T02:15:00.642Z,78.17
2019-04-14T02:17:26.802Z,78.16
2019-04-14T02:19:52.967Z,78.11
2019-04-14T02:22:20.199Z,78.04
2019-04-14T02:24:46.490Z,77.96
2019-04-14T02:27:12.647Z,77.91
2019-04-14T02:29:38.693Z,77.77
2019-04-14T02:32:35.435Z,77.86
2019-04-14T02:35:00.192Z,77.85
2019-04-14T02:37:44.721Z,77.92
2019-04-14T02:40:08.188Z,77.87
2019-04-14T02:44:52.814Z,77.78
2019-04-14T02:49:50.759Z,77.73
2019-04-14T02:54:50.420Z,77.82
2019-04-14T02:57:19.066Z,77.81
2019-04-14T03:02:22.927Z,77.72
2019-04-14T03:04:37.468Z,77.60
2019-04-14T03:07:05.216Z,77.63
2019-04-14T03:09:36.358Z,77.50
2019-04-14T03:12:03.022Z,77.55
2019-04-14T03:14:30.974Z,77.53
2019-04-14T03:17:21.912Z,77.67
2019-04-14T03:20:07.162Z,77.71
2019-04-14T03:28:14.394Z,77.86
2019-04-14T03:33:18.019Z,78.12
2019-04-14T03:35:58.113Z,78.25
2019-04-14T03:37:56.544Z,78.38
2019-04-14T03:40:28.523Z,78.45
2019-04-14T03:42:59.096Z,78.65
2019-04-14T03:45:26.137Z,78.59
2019-04-14T03:47:44.452Z,78.55
2019-04-14T03:50:16.064Z,78.65
2019-04-14T03:55:01.471Z,78.87
2019-04-14T03:57:12.595Z,78.90
2019-04-14T03:59:39.233Z,78.95
2019-04-14T04:02:05.597Z,79.07
2019-04-14T04:04:31.759Z,79.24
2019-04-14T04:06:57.895Z,79.24
2019-04-14T04:09:25.849Z,79.28
2019-04-14T04:11:52.068Z,79.33
2019-04-14T04:14:18.283Z,79.45
2019-04-14T04:16:59.465Z,79.44
2019-04-14T04:19:30.143Z,79.67
2019-04-14T04:22:04.237Z,79.89
2019-04-14T04:24:35.171Z,79.97
2019-04-14T04:27:15.805Z,80.02
2019-04-14T04:29:46.461Z,80.57
2019-04-14T04:32:32.612Z,80.52
2019-04-14T04:35:04.304Z,80.61
2019-04-14T04:37:45.459Z,80.56
2019-04-14T04:40:13.628Z,80.86
2019-04-14T04:42:39.685Z,81.21
2019-04-14T04:45:06.127Z,81.20
2019-04-14T04:47:32.119Z,81.17
2019-04-14T04:49:58.259Z,81.07
2019-04-14T04:52:24.315Z,81.08
2019-04-14T04:54:51.559Z,81.11
2019-04-14T04:57:17.917Z,81.08
2019-04-14T04:59:45.236Z,81.03
2019-04-14T05:02:11.495Z,81.07
2019-04-14T05:04:37.557Z,81.49
2019-04-14T05:07:03.781Z,81.55
2019-04-14T05:18:00.487Z,81.92
2019-04-14T05:20:27.105Z,81.64
2019-04-14T05:22:53.313Z,82.02
2019-04-14T05:25:19.503Z,82.11
2019-04-14T05:27:45.650Z,82.05
2019-04-14T05:30:11.858Z,82.53
2019-04-14T05:32:39.223Z,82.51
2019-04-14T05:35:05.808Z,82.65
2019-04-14T05:37:31.894Z,82.67
2019-04-14T05:39:59.292Z,82.65
2019-04-14T05:42:27.156Z,82.61
2019-04-14T05:44:53.811Z,82.40
2019-04-14T05:47:20.087Z,82.37
2019-04-14T05:49:50.081Z,82.27
2019-04-14T05:52:14.306Z,82.15
2019-04-14T05:54:40.539Z,82.04
2019-04-14T05:57:06.688Z,82.13
2019-04-14T05:59:33.356Z,82.32
2019-04-14T06:01:59.484Z,82.61
2019-04-14T06:04:26.455Z,82.77
2019-04-14T06:06:52.726Z,82.81
2019-04-14T06:09:18.883Z,82.78
2019-04-14T06:11:45.044Z,82.75
2019-04-14T06:14:11.092Z,82.72
2019-04-14T06:16:37.244Z,83.15
2019-04-14T06:19:03.407Z,83.18
2019-04-14T06:21:29.565Z,83.27
2019-04-14T06:23:55.775Z,83.56
2019-04-14T06:26:21.908Z,83.87
2019-04-14T06:28:48.080Z,84.19
2019-04-14T06:31:32.611Z,84.62
2019-04-14T06:34:00.748Z,85.36
2019-04-14T06:36:34.544Z,85.75
2019-04-14T06:39:17.721Z,85.52
2019-04-14T06:41:43.833Z,85.44
2019-04-14T06:44:09.999Z,84.95
2019-04-14T06:46:36.145Z,84.94
2019-04-14T06:49:02.521Z,85.36
2019-04-14T06:51:28.673Z,85.24
2019-04-14T06:53:54.827Z,84.92
2019-04-14T06:56:20.987Z,84.52
2019-04-14T06:58:47.182Z,84.23
2019-04-14T07:01:13.328Z,84.09
2019-04-14T07:03:39.542Z,84.21
2019-04-14T07:06:05.753Z,84.50
2019-04-14T07:08:31.889Z,84.08
2019-04-14T07:10:58.039Z,84.14
2019-04-14T07:13:24.187Z,84.14
2019-04-14T07:15:50.335Z,84.11
2019-04-14T07:18:16.379Z,83.17
2019-04-14T07:20:42.425Z,82.49
2019-04-14T07:23:08.566Z,82.10
2019-04-14T07:25:34.711Z,79.24
2019-04-14T07:28:00.875Z,76.22
2019-04-14T07:30:45.379Z,75.25
2019-04-14T07:33:29.838Z,75.04
2019-04-14T07:36:00.432Z,73.19
2019-04-14T07:38:28.482Z,71.66
2019-04-14T07:41:02.155Z,71.11
2019-04-14T07:43:32.764Z,70.88
2019-04-14T07:46:03.488Z,70.19
2019-04-14T07:51:21.322Z,68.88
2019-04-14T07:53:49.216Z,67.90
2019-04-14T07:56:34.064Z,66.20
2019-04-14T07:59:05.247Z,64.37
2019-04-14T08:01:39.208Z,63.69
2019-04-14T08:04:07.253Z,64.28
2019-04-14T08:06:33.576Z,61.93
2019-04-14T08:08:59.746Z,61.66
2019-04-14T08:11:25.877Z,60.49
2019-04-14T08:13:52.063Z,60.48
2019-04-14T08:16:18.197Z,61.49
2019-04-14T08:18:44.499Z,60.84
2019-04-14T08:21:10.654Z,58.78
2019-04-14T08:23:36.794Z,58.06
2019-04-14T08:26:02.959Z,58.27
2019-04-14T08:28:29.165Z,57.36
2019-04-14T08:30:55.299Z,57.40
2019-04-14T08:33:21.437Z,56.30
2019-04-14T08:35:47.569Z,57.05
2019-04-14T08:38:13.740Z,55.79
2019-04-14T08:40:39.885Z,55.89
2019-04-14T08:43:10.469Z,56.30
2019-04-14T08:48:19.061Z,54.92
2019-04-14T08:50:47.031Z,54.55
2019-04-14T08:53:17.755Z,53.53
2019-04-14T08:56:03.854Z,53.65
2019-04-14T08:58:48.481Z,53.18
2019-04-14T09:09:37.535Z,53.54
2019-04-14T09:12:15.285Z,52.22
2019-04-14T09:14:33.954Z,53.37
2019-04-14T09:17:00.233Z,53.32
2019-04-14T09:19:26.262Z,53.26
2019-04-14T09:21:52.459Z,52.25
2019-04-14T09:24:18.502Z,48.97
2019-04-14T09:26:44.690Z,49.53
2019-04-14T09:29:10.730Z,51.31
2019-04-14T09:31:36.860Z,51.49
2019-04-14T09:34:02.997Z,51.44
2019-04-14T09:36:29.140Z,51.79
2019-04-14T09:38:55.219Z,50.04
2019-04-14T09:41:21.256Z,51.64
2019-04-14T09:43:47.455Z,51.61
2019-04-14T09:46:13.639Z,51.63
2019-04-14T09:48:39.786Z,51.04
2019-04-14T09:51:05.978Z,48.70
2019-04-14T09:53:32.031Z,47.79
2019-04-14T09:55:58.167Z,47.61
2019-04-14T09:58:24.226Z,49.33
2019-04-14T10:00:50.395Z,47.50
2019-04-14T10:03:16.655Z,49.10
2019-04-14T10:05:42.735Z,48.84
2019-04-14T10:08:08.873Z,48.76
2019-04-14T10:10:35.059Z,49.17
2019-04-14T10:13:01.313Z,48.59
2019-04-14T10:15:27.627Z,45.80
2019-04-14T10:17:53.935Z,47.31
2019-04-14T10:20:20.211Z,47.22
2019-04-14T10:22:46.480Z,47.56
2019-04-14T10:25:12.632Z,48.17
2019-04-14T10:27:38.928Z,47.93
2019-04-14T10:30:05.699Z,47.73
2019-04-14T10:32:31.963Z,48.12
2019-04-14T10:34:58.140Z,46.77
2019-04-14T10:37:24.389Z,47.71
2019-04-14T10:39:50.675Z,45.93
2019-04-14T10:42:17.990Z,45.37
2019-04-14T10:44:44.247Z,46.02
2019-04-14T10:47:10.519Z,44.54
2019-04-14T10:49:36.714Z,45.06
2019-04-14T10:52:03.174Z,44.88
2019-04-14T10:54:29.512Z,45.38
2019-04-14T10:56:55.661Z,46.16
2019-04-14T10:59:21.928Z,45.79
2019-04-14T11:01:48.177Z,46.41
2019-04-14T11:04:14.459Z,45.41
2019-04-14T11:06:45.271Z,46.04
2019-04-14T11:09:14.820Z,46.38
2019-04-14T11:11:41.201Z,47.16
2019-04-14T11:14:07.464Z,46.79
2019-04-14T11:16:33.632Z,48.10
2019-04-14T11:19:02.025Z,47.85
2019-04-14T11:21:41.796Z,47.61
2019-04-14T11:23:58.749Z,44.91
2019-04-14T11:26:26.914Z,44.87
2019-04-14T11:28:53.073Z,45.75
2019-04-14T11:31:21.146Z,46.06
2019-04-14T11:34:00.997Z,45.44
2019-04-14T11:39:16.982Z,46.13
2019-04-14T11:41:42.994Z,46.55
2019-04-14T11:44:09.180Z,46.72
2019-04-14T11:46:35.331Z,46.31
2019-04-14T11:49:01.655Z,45.22
2019-04-14T11:51:27.942Z,44.42
2019-04-14T11:53:54.184Z,42.64
2019-04-14T11:56:20.493Z,44.09
2019-04-14T11:58:46.776Z,43.93
2019-04-14T12:01:23.598Z,43.55
2019-04-14T12:03:54.312Z,42.93
2019-04-14T12:06:22.470Z,43.50
2019-04-14T12:08:53.079Z,41.32
2019-04-14T12:11:19.356Z,39.95
2019-04-14T12:13:45.504Z,38.55
2019-04-14T12:16:11.666Z,40.50
2019-04-14T12:18:37.855Z,39.44
2019-04-14T12:21:04.051Z,38.58
2019-04-14T12:23:30.469Z,38.44
2019-04-14T12:26:05.278Z,39.84
2019-04-14T12:28:24.824Z,39.41
2019-04-14T12:30:53.247Z,38.84
2019-04-14T12:33:19.650Z,39.74
2019-04-14T12:35:45.864Z,39.22
2019-04-14T12:38:12.114Z,39.91
2019-04-14T12:40:38.832Z,39.55
2019-04-14T12:43:07.167Z,37.50
2019-04-14T12:45:52.024Z,38.16
2019-04-14T12:48:26.263Z,37.27
2019-04-14T12:51:00.565Z,38.25
2019-04-14T12:53:26.762Z,35.94
2019-04-14T12:55:52.946Z,35.84
2019-04-14T13:01:11.450Z,37.21
2019-04-14T13:03:38.301Z,36.66
2019-04-14T13:06:04.444Z,35.56
2019-04-14T13:08:31.491Z,34.56
2019-04-14T13:10:57.639Z,35.78
2019-04-14T13:13:23.792Z,35.63
2019-04-14T13:15:49.984Z,35.72
2019-04-14T13:18:16.251Z,36.04
2019-04-14T13:20:42.429Z,36.67
2019-04-14T13:23:08.561Z,38.16
2019-04-14T13:25:34.819Z,38.60
2019-04-14T13:28:00.965Z,37.84
2019-04-14T13:30:31.798Z,37.99
2019-04-14T13:32:58.061Z,38.12
2019-04-14T13:35:24.266Z,37.51
2019-04-14T13:37:50.444Z,37.95
2019-04-14T13:40:16.585Z,38.57
2019-04-14T13:42:42.736Z,36.61
2019-04-14T13:45:08.992Z,36.82
2019-04-14T13:47:35.176Z,37.81
2019-04-14T13:50:02.258Z,38.49
2019-04-14T13:52:30.822Z,39.07
2019-04-14T13:54:56.485Z,39.61
2019-04-14T13:57:22.638Z,35.85
2019-04-14T13:59:48.805Z,36.26
2019-04-14T14:02:15.014Z,37.55
2019-04-14T14:04:41.146Z,36.71
2019-04-14T14:07:10.917Z,37.18
2019-04-14T14:09:37.150Z,36.86
2019-04-14T14:12:17.242Z,37.27
2019-04-14T14:14:51.068Z,37.27
2019-04-14T14:17:21.674Z,37.65
2019-04-14T14:19:55.556Z,38.61
2019-04-14T14:25:26.686Z,38.98
2019-04-14T14:27:52.897Z,38.45
2019-04-14T14:30:20.384Z,37.84
2019-04-14T14:32:46.556Z,38.60
2019-04-14T14:35:12.731Z,39.94
2019-04-14T14:37:38.883Z,40.32
2019-04-14T14:40:05.574Z,40.80
2019-04-14T14:42:31.713Z,38.68
2019-04-14T14:45:05.620Z,38.93
2019-04-14T14:47:33.573Z,39.08
2019-04-14T14:50:10.275Z,39.08
2019-04-14T14:52:37.830Z,39.13
2019-04-14T14:55:07.472Z,39.14
2019-04-14T14:57:33.797Z,38.92
2019-04-14T15:00:00.015Z,39.09
2019-04-14T15:02:26.274Z,39.03
2019-04-14T15:04:55.217Z,38.75
2019-04-14T15:07:21.380Z,38.83
2019-04-14T15:09:47.745Z,39.79
2019-04-14T15:12:14.077Z,38.93
2019-04-14T15:14:40.388Z,39.11
2019-04-14T15:17:08.392Z,39.41
2019-04-14T15:19:34.926Z,39.60
2019-04-14T15:22:01.081Z,39.41
2019-04-14T15:24:27.340Z,39.30
2019-04-14T15:26:53.493Z,40.11
2019-04-14T15:29:19.779Z,38.67
2019-04-14T15:31:46.038Z,38.73
2019-04-14T15:34:12.339Z,38.84
2019-04-14T15:36:38.546Z,39.67
2019-04-14T15:39:06.498Z,39.22
2019-04-14T15:41:32.641Z,37.82
2019-04-14T15:43:58.623Z,37.47
2019-04-14T15:46:24.772Z,37.42
2019-04-14T15:48:51.026Z,37.59
2019-04-14T15:51:17.217Z,37.88
2019-04-14T15:53:43.358Z,38.15
2019-04-14T15:56:11.411Z,38.48
2019-04-14T15:58:42.265Z,38.75
2019-04-14T16:01:15.855Z,38.07
2019-04-14T16:03:46.932Z,38.82
2019-04-14T16:06:36.004Z,37.80
2019-04-14T16:09:21.556Z,38.41
2019-04-14T16:12:04.791Z,38.67
2019-04-14T16:14:47.814Z,38.90
2019-04-14T16:20:06.961Z,38.63
2019-04-14T16:22:33.695Z,38.62
2019-04-14T16:25:00.159Z,38.93
2019-04-14T16:30:23.948Z,39.69
2019-04-14T16:33:03.895Z,40.04
2019-04-14T16:35:31.926Z,39.40
2019-04-14T16:37:58.524Z,39.69
2019-04-14T16:40:24.796Z,40.07
2019-04-14T16:42:52.389Z,40.63
2019-04-14T16:45:18.705Z,40.84
2019-04-14T16:47:44.894Z,40.94
2019-04-14T16:50:11.633Z,40.76
2019-04-14T16:55:30.093Z,38.90
2019-04-14T16:57:58.436Z,38.56
2019-04-14T17:00:26.504Z,39.18
2019-04-14T17:02:54.532Z,38.96
2019-04-14T17:05:20.666Z,39.91
2019-04-14T17:07:46.994Z,39.71
2019-04-14T17:10:13.270Z,40.04
2019-04-14T17:12:39.599Z,41.25
2019-04-14T17:15:26.001Z,42.01
2019-04-14T17:18:06.282Z,42.48
2019-04-14T17:20:51.226Z,42.27
2019-04-14T17:23:19.287Z,41.50
2019-04-14T17:25:49.926Z,42.73
2019-04-14T17:28:32.875Z,42.82
2019-04-14T17:31:01.009Z,43.57
2019-04-14T17:33:37.881Z,43.10
2019-04-14T17:36:08.648Z,43.77
2019-04-14T17:38:39.282Z,44.85
2019-04-14T17:41:13.836Z,46.11
2019-04-14T17:43:41.906Z,47.57
2019-04-14T17:46:27.823Z,48.58
2019-04-14T17:49:04.054Z,49.04
2019-04-14T17:51:32.085Z,49.15
2019-04-14T17:54:00.130Z,49.18
2019-04-14T17:56:30.828Z,49.40
2019-04-14T18:01:48.396Z,50.11
2019-04-14T18:04:16.367Z,49.94
2019-04-14T18:06:47.449Z,49.74
2019-04-14T18:09:24.147Z,49.68
2019-04-14T18:11:54.734Z,50.22
2019-04-14T18:14:25.729Z,50.34
2019-04-14T18:17:10.478Z,50.75
2019-04-14T18:19:55.376Z,50.48
2019-04-14T18:22:21.515Z,50.60
2019-04-14T18:24:47.686Z,50.90
2019-04-14T18:27:13.835Z,51.36
2019-04-14T18:29:58.675Z,51.49
2019-04-14T18:32:29.373Z,51.96
2019-04-14T18:34:57.321Z,52.54
2019-04-14T18:40:17.437Z,52.89
2019-04-14T18:42:45.882Z,53.19
2019-04-14T18:45:20.012Z,52.97
2019-04-14T18:47:47.994Z,53.31
2019-04-14T18:50:23.772Z,53.81
2019-04-14T18:52:57.871Z,54.10
2019-04-14T18:55:28.462Z,54.31
2019-04-14T18:58:05.164Z,54.08
2019-04-14T19:00:50.130Z,54.12
2019-04-14T19:03:16.269Z,54.05
2019-04-14T19:05:42.473Z,54.34
2019-04-14T19:08:08.627Z,54.42
2019-04-14T19:10:34.912Z,54.39
2019-04-14T19:13:02.849Z,54.10
2019-04-14T19:15:36.632Z,55.93
2019-04-14T19:18:07.692Z,56.59
2019-04-14T19:20:33.868Z,56.25
2019-04-14T19:22:59.917Z,56.88
2019-04-14T19:25:25.965Z,57.07
2019-04-14T19:27:52.031Z,56.68
2019-04-14T19:30:18.341Z,56.36
2019-04-14T19:32:44.481Z,57.07
2019-04-14T19:35:10.659Z,57.15
2019-04-14T19:37:36.803Z,56.92
2019-04-14T19:40:04.864Z,57.02
2019-04-14T19:42:31.023Z,57.04
2019-04-14T19:44:57.158Z,57.33
2019-04-14T19:47:23.337Z,57.18
2019-04-14T19:49:49.373Z,57.27
2019-04-14T19:52:15.537Z,57.83
2019-04-14T19:54:41.727Z,57.76
2019-04-14T19:57:08.005Z,58.18
2019-04-14T19:59:34.212Z,58.18
2019-04-14T20:02:00.352Z,58.11
2019-04-14T20:04:26.637Z,58.39
2019-04-14T20:06:52.777Z,58.51
2019-04-14T20:09:18.907Z,58.56
2019-04-14T20:11:45.170Z,58.63
2019-04-14T20:14:11.223Z,58.70
2019-04-14T20:16:39.292Z,58.53
2019-04-14T20:19:13.395Z,58.90
2019-04-14T20:21:44.603Z,58.90
2019-04-14T20:24:21.723Z,58.90
2019-04-14T20:26:49.832Z,59.38
2019-04-14T20:29:17.770Z,59.29
2019-04-14T20:31:45.820Z,59.05
2019-04-14T20:34:11.885Z,59.98
2019-04-14T20:36:38.041Z,60.23
2019-04-14T20:39:07.235Z,60.06
2019-04-14T20:41:33.418Z,59.92
2019-04-14T20:44:01.897Z,60.10
2019-04-14T20:46:29.423Z,60.58
2019-04-14T20:48:55.702Z,60.21
2019-04-14T20:51:21.895Z,60.26
2019-04-14T20:53:47.840Z,60.42
2019-04-14T20:56:14.100Z,60.52
2019-04-14T20:58:40.269Z,60.85
2019-04-14T21:01:08.147Z,60.49
2019-04-14T21:03:47.996Z,60.50
2019-04-14T21:09:29.116Z,60.59
2019-04-14T21:12:00.049Z,60.40
2019-04-14T21:14:28.099Z,60.44
2019-04-14T21:17:11.041Z,60.60
2019-04-14T21:19:39.082Z,60.58
2019-04-14T21:22:07.125Z,60.63
2019-04-14T21:24:47.266Z,60.58
2019-04-14T21:27:27.662Z,60.74
2019-04-14T21:30:04.470Z,60.83
2019-04-14T21:32:47.708Z,60.79
2019-04-14T21:35:24.395Z,60.81
2019-04-14T21:37:58.241Z,60.86
2019-04-14T21:40:26.336Z,61.03
2019-04-14T21:42:52.486Z,61.26
2019-04-14T21:45:18.637Z,61.57
2019-04-14T21:47:44.829Z,61.61
2019-04-14T21:50:12.282Z,61.46
2019-04-14T21:52:40.360Z,61.30
2019-04-14T21:55:06.839Z,61.23
2019-04-14T21:57:51.533Z,61.30
2019-04-14T22:03:31.704Z,61.55
2019-04-14T22:06:02.772Z,61.57
2019-04-14T22:08:30.809Z,61.49
2019-04-14T22:10:58.923Z,61.50
2019-04-14T22:13:25.175Z,61.59
2019-04-14T22:15:51.726Z,61.57
2019-04-14T22:18:18.494Z,61.68
2019-04-14T22:20:44.541Z,61.76
2019-04-14T22:23:12.620Z,61.96
2019-04-14T22:25:38.767Z,61.99
2019-04-14T22:28:04.953Z,61.77
2019-04-14T22:30:31.096Z,62.12
2019-04-14T22:32:57.251Z,62.04
2019-04-14T22:35:23.399Z,62.14
2019-04-14T22:37:49.573Z,62.43
2019-04-14T22:40:15.826Z,62.71
2019-04-14T22:42:42.045Z,62.48
2019-04-14T22:45:10.214Z,62.52
2019-04-14T22:47:36.348Z,62.65
2019-04-14T22:50:03.907Z,62.57
2019-04-14T22:52:29.991Z,62.73
2019-04-14T22:54:56.168Z,62.69
2019-04-14T22:57:22.327Z,62.82
2019-04-14T22:59:48.540Z,62.83
2019-04-14T23:02:22.119Z,63.06
2019-04-14T23:04:50.233Z,63.31
2019-04-14T23:07:18.276Z,63.12
2019-04-14T23:09:46.326Z,63.35
2019-04-14T23:15:03.558Z,63.14
2019-04-14T23:17:37.722Z,63.23
2019-04-14T23:23:01.839Z,63.22
2019-04-14T23:25:27.979Z,63.24
2019-04-14T23:27:54.135Z,63.36
2019-04-14T23:30:20.385Z,63.33
2019-04-14T23:32:46.523Z,63.27
2019-04-14T23:35:12.598Z,63.55
2019-04-14T23:37:38.753Z,63.69
2019-04-14T23:40:05.849Z,63.73
2019-04-14T23:42:32.092Z,63.83
2019-04-14T23:44:58.237Z,63.74
2019-04-14T23:47:24.377Z,63.87
2019-04-14T23:49:50.460Z,63.98
2019-04-14T23:52:16.610Z,63.98
2019-04-14T23:54:42.744Z,63.96
2019-04-14T23:57:08.913Z,63.97
2019-04-14T23:59:35.045Z,63.98
